Time;durP1;ratioP1;P1;durP2;ratioP2;P2;SDS_P1;SDS_P2;PMS_P1;PMS_P2;Temp;Humidity;BMP_temperature;BMP_pressure;BME280_temperature;BME280_humidity;BME280_pressure;Samples;Min_cycle;Max_cycle;Signal;HPM_P1;HPM_P2
2023/07/11 00:02:00;;;;;;;7.50;1.83;;;;;;;15.59;62.64;99245.28;5072644;28;20449;-57
2023/07/11 00:04:26;;;;;;;3.70;1.67;;;;;;;15.55;62.68;99241.25;5072540;28;20043;-57
2023/07/11 00:06:52;;;;;;;6.80;1.90;;;;;;;15.59;62.61;99239.91;5071182;28;20143;-57
2023/07/11 00:09:19;;;;;;;6.05;1.60;;;;;;;15.59;62.57;99241.78;5071887;28;20066;-56
2023/07/11 00:11:45;;;;;;;4.32;1.65;;;;;;;15.60;62.52;99241.59;5072290;28;20040;-56
2023/07/11 00:14:11;;;;;;;4.55;1.63;;;;;;;15.57;62.46;99233.84;5071891;28;20085;-59
2023/07/11 00:16:37;;;;;;;1.75;1.60;;;;;;;15.50;62.46;99225.56;5071537;28;20131;-53
2023/07/11 00:19:03;;;;;;;2.08;1.75;;;;;;;15.55;62.61;99237.69;5070884;28;20111;-53
2023/07/11 00:21:29;;;;;;;3.38;1.60;;;;;;;15.52;62.71;99235.34;5072224;28;20345;-56
2023/07/11 00:24:03;;;;;;;3.95;1.60;;;;;;;15.54;62.65;99233.31;5071464;28;20089;-61
2023/07/11 00:26:30;;;;;;;6.85;1.58;;;;;;;15.54;62.33;99242.28;5071904;28;20086;-56
2023/07/11 00:28:55;;;;;;;4.05;1.70;;;;;;;15.53;62.41;99245.13;5073284;28;20050;-56
2023/07/11 00:31:21;;;;;;;5.13;1.83;;;;;;;15.50;62.49;99241.75;5075707;28;20032;-56
2023/07/11 00:33:46;;;;;;;2.97;1.40;;;;;;;15.45;62.62;99237.91;5075933;28;20029;-58
2023/07/11 00:36:12;;;;;;;2.28;1.50;;;;;;;15.46;62.65;99245.81;5074937;28;20036;-58
2023/07/11 00:38:37;;;;;;;2.72;1.73;;;;;;;15.44;62.96;99236.22;5076047;28;20484;-54
2023/07/11 00:41:06;;;;;;;3.05;1.50;;;;;;;15.39;62.92;99228.63;5076061;28;20029;-58
2023/07/11 00:43:32;;;;;;;2.25;1.63;;;;;;;15.44;62.65;99233.53;5075513;28;20032;-54
2023/07/11 00:46:16;;;;;;;3.50;1.73;;;;;;;15.59;62.97;99244.47;5057868;28;20036;-57
2023/07/11 00:49:02;;;;;;;2.42;1.45;;;;;;;15.59;62.37;99239.91;5075739;28;20040;-61
2023/07/11 00:51:35;;;;;;;2.95;1.30;;;;;;;15.49;62.42;99250.03;5074072;28;20028;-59
2023/07/11 00:54:03;;;;;;;1.85;1.50;;;;;;;15.43;62.61;99250.69;5075263;28;20436;-55
2023/07/11 00:56:33;;;;;;;3.55;1.60;;;;;;;15.36;62.80;99234.38;5075226;28;20471;-58
2023/07/11 00:58:59;;;;;;;2.78;1.70;;;;;;;15.21;62.68;99212.63;5075124;28;20039;-55
2023/07/11 01:01:25;;;;;;;4.03;1.33;;;;;;;15.43;62.66;99239.91;5075348;28;20040;-60
2023/07/11 01:03:52;;;;;;;5.05;1.70;;;;;;;15.43;62.65;99245.31;5075515;28;20403;-52
2023/07/11 01:06:23;;;;;;;2.92;1.50;;;;;;;15.16;62.79;99198.78;5075086;28;20049;-54
2023/07/11 01:08:51;;;;;;;9.00;1.48;;;;;;;15.38;62.35;99243.13;5075109;28;20211;-56
2023/07/11 01:11:18;;;;;;;2.70;1.20;;;;;;;15.38;62.56;99243.13;5075218;28;20032;-52
2023/07/11 01:13:43;;;;;;;1.88;1.20;;;;;;;15.38;62.57;99231.50;5074704;28;20356;-60
2023/07/11 01:16:09;;;;;;;4.63;1.58;;;;;;;15.42;62.59;99241.78;5074083;28;20040;-58
2023/07/11 01:18:36;;;;;;;2.20;1.30;;;;;;;15.45;62.26;99240.59;5073375;28;20481;-55
2023/07/11 01:21:04;;;;;;;2.15;1.40;;;;;;;15.42;62.18;99227.44;5075489;28;20044;-50
2023/07/11 01:23:30;;;;;;;1.48;1.17;;;;;;;15.42;62.55;99230.13;5074604;28;20081;-51
2023/07/11 01:26:04;;;;;;;3.55;1.65;;;;;;;15.53;62.12;99228.94;5074373;28;20407;-58
2023/07/11 01:28:30;;;;;;;1.70;1.10;;;;;;;15.44;62.10;99244.31;5075442;28;20444;-59
2023/07/11 01:30:55;;;;;;;5.15;1.60;;;;;;;15.31;62.25;99221.38;5075070;28;20075;-52
2023/07/11 01:33:24;;;;;;;1.65;1.30;;;;;;;15.33;62.65;99232.84;5073962;28;20028;-51
2023/07/11 01:35:52;;;;;;;1.65;1.40;;;;;;;15.31;62.53;99237.56;5074556;28;20079;-55
2023/07/11 01:38:18;;;;;;;1.50;1.30;;;;;;;15.30;62.45;99235.03;5075145;28;20039;-56
2023/07/11 01:40:44;;;;;;;3.40;1.48;;;;;;;15.23;62.71;99229.50;5074596;28;20138;-64
2023/07/11 01:43:10;;;;;;;3.85;1.25;;;;;;;15.12;62.65;99214.50;5074871;28;20064;-57
2023/07/11 01:45:35;;;;;;;2.35;1.20;;;;;;;15.15;62.86;99229.47;5074225;28;20032;-56
2023/07/11 01:48:01;;;;;;;1.77;1.30;;;;;;;15.18;63.13;99250.69;5075164;28;20024;-55
2023/07/11 01:50:27;;;;;;;2.45;1.33;;;;;;;15.11;62.97;99230.81;5074724;28;20119;-53
2023/07/11 01:52:52;;;;;;;1.70;1.40;;;;;;;15.14;63.02;99234.03;5074379;28;20067;-58
2023/07/11 01:55:18;;;;;;;2.15;1.40;;;;;;;15.16;63.17;99228.47;5074191;28;20409;-56
2023/07/11 01:57:43;;;;;;;1.98;1.10;;;;;;;15.11;62.91;99217.34;5074749;28;20032;-57
2023/07/11 02:00:09;;;;;;;2.30;1.70;;;;;;;15.02;62.85;99209.25;5073956;28;20106;-56
2023/07/11 02:02:35;;;;;;;3.22;1.52;;;;;;;15.14;63.10;99230.47;5074288;28;20045;-49
2023/07/11 02:05:00;;;;;;;1.65;1.27;;;;;;;15.15;63.16;99229.47;5073954;28;20090;-53
2023/07/11 02:07:26;;;;;;;1.90;1.40;;;;;;;15.17;63.16;99231.00;5074410;28;20056;-58
2023/07/11 02:09:51;;;;;;;1.42;1.20;;;;;;;15.19;63.25;99233.50;5074449;28;20058;-56
2023/07/11 02:12:17;;;;;;;1.52;1.25;;;;;;;14.74;63.15;99150.31;5073866;28;20086;-55
2023/07/11 02:14:42;;;;;;;4.15;1.77;;;;;;;15.25;63.81;99229.31;5073994;28;20029;-53
2023/07/11 02:17:08;;;;;;;1.95;1.30;;;;;;;15.05;64.05;99206.22;5074145;28;20444;-54
2023/07/11 02:19:34;;;;;;;2.15;1.27;;;;;;;14.91;64.58;99199.66;5074073;28;20048;-57
2023/07/11 02:22:00;;;;;;;2.25;1.58;;;;;;;15.15;65.38;99232.16;5056215;28;20045;-55
2023/07/11 02:24:25;;;;;;;4.97;1.20;;;;;;;15.12;65.40;99232.50;5073701;28;20348;-54
2023/07/11 02:26:52;;;;;;;4.97;1.50;;;;;;;14.86;65.98;99195.78;5073425;28;20443;-56
2023/07/11 02:29:17;;;;;;;3.30;1.40;;;;;;;14.82;66.05;99194.44;5073528;28;20114;-63
2023/07/11 02:31:43;;;;;;;4.65;1.30;;;;;;;14.97;65.96;99219.72;5074052;28;20428;-53
2023/07/11 02:34:09;;;;;;;3.00;1.10;;;;;;;14.82;66.19;99222.19;5073400;28;20029;-58
2023/07/11 02:36:34;;;;;;;5.22;1.40;;;;;;;14.82;66.53;99229.44;5073815;28;20086;-57
2023/07/11 02:39:01;;;;;;;2.95;1.40;;;;;;;14.68;67.44;99209.38;5072402;28;20032;-57
2023/07/11 02:41:27;;;;;;;2.35;1.40;;;;;;;14.85;67.30;99229.97;5084468;28;20107;-56
2023/07/11 02:43:53;;;;;;;3.10;1.80;;;;;;;14.82;66.95;99227.59;5090898;28;20046;-58
2023/07/11 02:46:19;;;;;;;2.47;1.30;;;;;;;14.77;67.45;99228.09;5088288;28;20051;-62
2023/07/11 02:48:45;;;;;;;3.40;1.33;;;;;;;14.76;67.56;99229.13;5073487;28;20353;-56
2023/07/11 02:51:10;;;;;;;1.58;1.30;;;;;;;14.70;67.51;99235.13;5072756;28;20111;-53
2023/07/11 02:53:36;;;;;;;2.78;1.20;;;;;;;14.64;67.91;99246.56;5072930;28;20115;-56
2023/07/11 02:56:02;;;;;;;1.33;1.20;;;;;;;14.61;68.29;99236.97;5073059;28;20101;-56
2023/07/11 02:58:28;;;;;;;3.00;1.20;;;;;;;14.61;69.09;99236.13;5073501;28;20123;-57
2023/07/11 03:00:56;;;;;;;2.00;1.27;;;;;;;14.63;69.25;99244.88;5071886;28;20032;-58
2023/07/11 03:03:22;;;;;;;1.30;1.13;;;;;;;14.59;69.28;99243.53;5072651;28;20356;-57
2023/07/11 03:05:49;;;;;;;1.63;1.30;;;;;;;14.57;69.64;99234.75;5073057;28;20031;-54
2023/07/11 03:08:16;;;;;;;2.63;1.48;;;;;;;14.57;69.69;99234.75;5073656;28;20051;-54
2023/07/11 03:10:42;;;;;;;4.68;1.38;;;;;;;14.63;69.77;99234.09;5072986;28;20067;-55
2023/07/11 03:13:08;;;;;;;2.90;1.38;;;;;;;14.68;69.84;99237.13;5072939;28;20035;-52
2023/07/11 03:15:35;;;;;;;4.22;1.38;;;;;;;14.67;69.09;99230.06;5072277;28;20028;-53
2023/07/11 03:18:00;;;;;;;1.63;1.00;;;;;;;14.62;69.28;99213.56;5072880;28;20029;-60
2023/07/11 03:20:26;;;;;;;3.58;1.25;;;;;;;14.76;68.75;99234.50;5072243;28;20134;-57
2023/07/11 03:22:52;;;;;;;1.38;1.20;;;;;;;14.79;68.43;99230.63;5073057;28;20032;-56
2023/07/11 03:25:18;;;;;;;1.10;1.00;;;;;;;14.78;67.62;99229.78;5073729;28;20027;-54
2023/07/11 03:27:43;;;;;;;2.15;0.90;;;;;;;14.82;67.35;99232.97;5072092;28;20033;-55
2023/07/11 03:30:10;;;;;;;1.60;1.00;;;;;;;14.85;67.65;99237.19;5072380;28;20376;-56
2023/07/11 03:32:35;;;;;;;1.90;1.05;;;;;;;14.96;68.00;99226.13;5072975;28;20124;-60
2023/07/11 03:35:01;;;;;;;4.50;1.30;;;;;;;15.03;66.56;99227.13;5071830;28;20115;-57
2023/07/11 03:37:30;;;;;;;2.38;1.38;;;;;;;15.11;66.06;99241.59;5071669;28;20028;-57
2023/07/11 03:39:55;;;;;;;3.42;1.02;;;;;;;15.11;65.22;99217.34;5072082;28;20460;-57
2023/07/11 03:42:21;;;;;;;1.20;1.00;;;;;;;15.20;64.73;99227.13;5072700;28;20039;-64
2023/07/11 03:44:46;;;;;;;3.50;1.10;;;;;;;15.09;64.74;99195.97;5072940;28;20509;-53
2023/07/11 03:47:12;;;;;;;3.85;1.35;;;;;;;15.31;64.31;99220.53;5089486;28;20032;-60
2023/07/11 03:49:37;;;;;;;3.42;1.52;;;;;;;15.38;63.93;99215.31;5089222;28;20089;-56
2023/07/11 03:52:03;;;;;;;2.55;1.08;;;;;;;15.41;63.56;99236.53;5074752;28;20467;-56
2023/07/11 03:54:29;;;;;;;1.80;0.80;;;;;;;15.38;63.52;99223.41;5072838;28;20033;-55
2023/07/11 03:56:54;;;;;;;1.63;0.98;;;;;;;15.27;63.39;99203.00;5072254;28;20046;-58
2023/07/11 03:59:20;;;;;;;3.25;1.17;;;;;;;15.18;63.34;99199.47;5072369;28;20441;-55
2023/07/11 04:01:46;;;;;;;2.20;0.98;;;;;;;15.31;63.40;99229.47;5072458;28;20036;-57
2023/07/11 04:04:13;;;;;;;1.50;0.82;;;;;;;15.29;63.02;99207.22;5077869;28;20199;-56
2023/07/11 04:06:39;;;;;;;1.88;0.90;;;;;;;15.48;62.75;99222.22;5079121;28;20040;-51
2023/07/11 04:09:05;;;;;;;1.52;0.70;;;;;;;15.57;62.30;99223.03;5078929;28;20490;-57
2023/07/11 04:11:30;;;;;;;2.65;1.13;;;;;;;15.72;61.85;99220.47;5079066;28;20036;-57
2023/07/11 04:13:56;;;;;;;2.15;0.90;;;;;;;15.80;61.13;99211.53;5079088;28;20341;-53
2023/07/11 04:16:22;;;;;;;2.90;0.75;;;;;;;15.98;60.41;99210.50;5078709;28;20079;-56
2023/07/11 04:18:47;;;;;;;3.67;0.75;;;;;;;16.11;60.19;99215.34;5061080;28;20134;-55
2023/07/11 04:21:13;;;;;;;1.50;0.70;;;;;;;15.98;59.96;99176.22;5077513;28;20036;-58
2023/07/11 04:23:38;;;;;;;3.15;0.90;;;;;;;16.27;59.26;99209.03;5061033;28;20363;-56
2023/07/11 04:26:04;;;;;;;0.63;0.63;;;;;;;16.25;59.17;99211.06;5078788;28;20096;-58
2023/07/11 04:28:30;;;;;;;2.58;0.80;;;;;;;16.19;59.06;99205.34;5078413;28;20029;-58
2023/07/11 04:30:56;;;;;;;1.95;0.68;;;;;;;16.17;59.10;99212.78;5077801;28;20502;-52
2023/07/11 04:33:21;;;;;;;1.75;0.77;;;;;;;16.09;59.21;99202.00;5079106;28;20024;-54
2023/07/11 04:35:47;;;;;;;1.20;0.70;;;;;;;16.13;59.07;99207.91;5078334;28;20029;-55
2023/07/11 04:38:12;;;;;;;2.45;0.75;;;;;;;15.88;59.32;99167.47;5078115;28;20352;-54
2023/07/11 04:40:38;;;;;;;1.13;0.57;;;;;;;15.79;59.32;99180.16;5077748;28;20439;-53
2023/07/11 04:43:03;;;;;;;1.48;0.98;;;;;;;15.96;59.10;99213.34;5077563;28;20025;-58
2023/07/11 04:45:29;;;;;;;1.38;0.80;;;;;;;15.98;59.09;99211.31;5077830;28;20047;-56
2023/07/11 04:47:55;;;;;;;1.48;0.63;;;;;;;16.06;59.02;99213.16;5077778;28;20028;-67
2023/07/11 04:50:20;;;;;;;1.90;0.80;;;;;;;16.01;59.00;99208.25;5080892;28;20028;-56
2023/07/11 04:52:46;;;;;;;2.40;0.80;;;;;;;16.10;58.99;99219.06;5076964;28;20029;-58
2023/07/11 04:55:12;;;;;;;3.15;0.82;;;;;;;16.10;58.74;99216.34;5090815;28;20028;-57
2023/07/11 04:57:37;;;;;;;2.25;0.68;;;;;;;16.22;58.09;99201.44;5077912;28;20032;-60
2023/07/11 05:00:05;;;;;;;2.92;0.70;;;;;;;16.38;57.46;99207.78;5078314;28;20047;-55
2023/07/11 05:02:31;;;;;;;2.33;0.80;;;;;;;16.39;57.32;99210.28;5078572;28;20032;-57
2023/07/11 05:04:57;;;;;;;0.80;0.60;;;;;;;16.34;57.41;99201.88;5078122;28;20039;-54
2023/07/11 05:07:23;;;;;;;0.98;0.50;;;;;;;16.30;57.12;99181.66;5077298;28;20044;-57
2023/07/11 05:09:48;;;;;;;2.83;0.63;;;;;;;16.26;56.57;99174.91;5078089;28;20064;-57
2023/07/11 05:12:15;;;;;;;1.27;0.73;;;;;;;16.56;56.39;99208.38;5088789;28;20040;-60
2023/07/11 05:14:40;;;;;;;3.50;0.88;;;;;;;16.84;55.39;99196.16;5096081;28;20096;-59
2023/07/11 05:17:06;;;;;;;4.95;0.50;;;;;;;17.00;55.07;99187.13;5094136;28;20374;-59
2023/07/11 05:19:31;;;;;;;2.05;0.80;;;;;;;16.98;54.84;99191.84;5095441;28;20054;-58
2023/07/11 05:21:57;;;;;;;3.33;0.70;;;;;;;16.97;54.84;99177.50;5095349;28;20050;-60
2023/07/11 05:24:23;;;;;;;1.05;0.50;;;;;;;16.88;54.75;99184.81;5095520;28;20032;-59
2023/07/11 05:26:48;;;;;;;2.53;0.77;;;;;;;16.82;54.87;99173.88;5094273;28;20085;-58
2023/07/11 05:29:14;;;;;;;1.23;0.60;;;;;;;16.81;54.50;99178.47;5092786;28;20030;-58
2023/07/11 05:31:39;;;;;;;1.17;0.85;;;;;;;16.81;54.73;99169.50;5095203;28;20111;-59
2023/07/11 05:34:05;;;;;;;0.55;0.52;;;;;;;16.95;54.38;99182.25;5093118;28;20109;-61
2023/07/11 05:36:33;;;;;;;3.72;0.50;;;;;;;17.14;54.26;99172.81;5094638;28;20059;-58
2023/07/11 05:39:13;;;;;;;2.50;0.80;;;;;;;17.38;54.17;99178.19;5095560;28;20066;-60
2023/07/11 05:41:44;;;;;;;1.45;0.70;;;;;;;17.32;53.69;99177.88;5094693;28;20039;-61
2023/07/11 05:44:12;;;;;;;2.08;0.70;;;;;;;17.26;53.92;99178.63;5094726;28;20024;-61
2023/07/11 05:46:38;;;;;;;2.55;0.80;;;;;;;17.26;53.89;99173.22;5094714;28;20410;-60
2023/07/11 05:49:04;;;;;;;1.27;0.77;;;;;;;17.34;53.56;99175.81;5093338;28;20040;-60
2023/07/11 05:51:30;;;;;;;2.75;0.70;;;;;;;17.57;53.25;99182.22;5094810;28;20081;-61
2023/07/11 05:53:56;;;;;;;4.75;1.17;;;;;;;17.67;52.77;99182.78;5094867;28;20032;-60
2023/07/11 05:56:22;;;;;;;4.25;0.85;;;;;;;17.56;53.31;99177.81;5094614;28;20104;-60
2023/07/11 05:58:50;;;;;;;3.38;0.82;;;;;;;17.63;53.28;99182.31;5095066;28;20035;-58
2023/07/11 06:01:20;;;;;;;3.40;1.17;;;;;;;17.83;53.11;99170.09;5094588;28;20451;-59
2023/07/11 06:03:49;;;;;;;2.53;0.98;;;;;;;18.08;52.41;99174.19;5088655;28;20105;-56
2023/07/11 06:06:17;;;;;;;1.38;0.80;;;;;;;18.07;52.04;99172.53;5073899;28;20040;-55
2023/07/11 06:08:42;;;;;;;1.55;0.90;;;;;;;17.94;52.17;99167.75;5075397;28;20035;-59
2023/07/11 06:11:08;;;;;;;1.77;0.90;;;;;;;17.84;52.35;99164.47;5075047;28;20045;-58
2023/07/11 06:13:37;;;;;;;2.17;0.90;;;;;;;17.67;52.97;99171.94;5074063;28;20033;-60
2023/07/11 06:16:06;;;;;;;0.93;0.65;;;;;;;17.48;53.41;99167.94;5074256;28;20444;-60
2023/07/11 06:18:34;;;;;;;5.85;1.08;;;;;;;17.14;54.10;99143.06;5073753;28;20051;-56
2023/07/11 06:21:00;;;;;;;2.05;1.10;;;;;;;17.37;54.16;99158.41;5074109;28;20028;-62
2023/07/11 06:23:25;;;;;;;7.72;0.82;;;;;;;17.58;53.62;99154.94;5073862;28;20341;-58
2023/07/11 06:25:51;;;;;;;1.88;0.75;;;;;;;17.76;52.92;99148.31;5072952;28;20348;-59
2023/07/11 06:28:16;;;;;;;3.70;0.70;;;;;;;17.83;52.55;99154.66;5072514;28;20364;-59
2023/07/11 06:30:43;;;;;;;2.10;0.90;;;;;;;17.87;52.67;99149.72;5074390;28;20024;-60
2023/07/11 06:33:14;;;;;;;5.38;0.85;;;;;;;17.94;52.61;99156.91;5073587;28;20039;-59
2023/07/11 06:35:41;;;;;;;4.28;1.10;;;;;;;17.86;52.81;99154.31;5073473;28;20029;-62
2023/07/11 06:38:08;;;;;;;4.60;0.80;;;;;;;17.83;52.42;99145.72;5056837;28;20322;-57
2023/07/11 06:40:33;;;;;;;7.85;1.20;;;;;;;17.91;52.55;99145.59;5062161;28;20063;-57
2023/07/11 06:42:59;;;;;;;9.68;1.20;;;;;;;18.02;52.05;99142.47;5073745;28;20433;-59
2023/07/11 06:45:25;;;;;;;8.93;1.33;;;;;;;18.28;50.96;99134.81;5076090;28;20024;-62
2023/07/11 06:47:50;;;;;;;4.72;1.15;;;;;;;19.58;49.01;99134.72;5074936;28;20486;-58
2023/07/11 06:50:16;;;;;;;8.93;1.17;;;;;;;21.21;44.64;99121.38;5074146;28;20092;-59
2023/07/11 06:52:42;;;;;;;3.90;0.90;;;;;;;22.09;42.30;99121.16;5072102;28;20028;-59
2023/07/11 06:55:07;;;;;;;3.75;0.90;;;;;;;22.62;40.88;99120.03;5072248;28;20028;-57
2023/07/11 06:57:33;;;;;;;2.80;0.85;;;;;;;22.90;39.81;99109.75;5073436;28;20039;-61
2023/07/11 06:59:59;;;;;;;2.67;0.80;;;;;;;22.56;40.18;99123.66;5064769;28;20496;-58
2023/07/11 07:02:24;;;;;;;6.43;0.98;;;;;;;21.78;41.62;99114.56;5047727;28;20364;-62
2023/07/11 07:04:50;;;;;;;4.53;1.30;;;;;;;20.85;43.84;99106.28;5067118;28;20032;-61
2023/07/11 07:07:16;;;;;;;7.88;1.10;;;;;;;19.86;45.76;99120.22;5074117;28;20076;-61
2023/07/11 07:09:41;;;;;;;6.88;1.13;;;;;;;19.39;47.64;99130.81;5078664;28;20024;-63
2023/07/11 07:12:07;;;;;;;6.07;1.30;;;;;;;18.84;48.93;99127.88;5092526;28;20036;-62
2023/07/11 07:14:33;;;;;;;2.97;1.08;;;;;;;18.54;50.10;99131.56;5090372;28;20039;-63
2023/07/11 07:16:58;;;;;;;4.90;0.95;;;;;;;18.13;50.59;99099.66;5070679;28;20043;-61
2023/07/11 07:19:24;;;;;;;2.97;1.10;;;;;;;18.21;50.76;99135.59;5072583;28;20063;-62
2023/07/11 07:21:49;;;;;;;5.15;1.27;;;;;;;18.11;51.33;99140.47;5071002;28;20055;-62
2023/07/11 07:24:15;;;;;;;4.70;1.13;;;;;;;18.04;51.14;99131.41;5056267;28;20079;-61
2023/07/11 07:26:41;;;;;;;8.50;1.27;;;;;;;18.21;50.87;99141.00;5073661;28;20069;-63
2023/07/11 07:29:07;;;;;;;3.83;1.20;;;;;;;18.46;50.32;99129.81;5071875;28;20081;-63
2023/07/11 07:31:33;;;;;;;3.78;1.17;;;;;;;18.89;49.26;99130.84;5072061;28;20036;-63
2023/07/11 07:33:58;;;;;;;5.15;1.17;;;;;;;19.24;48.21;99116.53;5034852;28;20036;-62
2023/07/11 07:36:24;;;;;;;1.70;1.00;;;;;;;19.53;46.99;99130.91;5064132;28;20076;-62
2023/07/11 07:38:50;;;;;;;4.20;1.00;;;;;;;19.50;46.90;99122.13;5091790;28;20028;-61
2023/07/11 07:41:16;;;;;;;6.68;1.00;;;;;;;19.26;47.49;99123.44;5092539;28;20034;-61
2023/07/11 07:43:43;;;;;;;5.25;1.17;;;;;;;18.99;48.38;99131.38;5092759;28;20391;-65
2023/07/11 07:46:17;;;;;;;3.42;0.95;;;;;;;18.85;48.84;99124.13;5080044;28;20043;-63
2023/07/11 07:48:43;;;;;;;5.35;1.50;;;;;;;18.38;49.44;99094.72;5081191;28;20036;-65
2023/07/11 07:51:12;;;;;;;5.65;1.40;;;;;;;18.55;50.31;99121.53;5071290;28;20086;-63
2023/07/11 07:53:38;;;;;;;5.10;1.52;;;;;;;18.58;49.96;99116.59;5072632;28;20044;-63
2023/07/11 07:56:08;;;;;;;7.45;1.20;;;;;;;18.69;49.74;99123.38;5071415;28;20484;-64
2023/07/11 07:58:34;;;;;;;4.70;1.25;;;;;;;18.58;49.82;99122.00;5089207;28;20036;-64
2023/07/11 08:01:01;;;;;;;2.78;1.02;;;;;;;18.46;50.00;99127.09;5073225;28;20040;-65
2023/07/11 08:03:27;;;;;;;2.42;1.20;;;;;;;18.43;49.62;99092.25;5053284;28;20365;-64
2023/07/11 08:05:54;;;;;;;7.45;1.60;;;;;;;19.04;48.76;99122.66;5052743;28;20026;-63
2023/07/11 08:08:21;;;;;;;2.67;1.23;;;;;;;19.36;48.16;99120.38;5068274;28;20071;-63
2023/07/11 08:10:47;;;;;;;5.70;1.42;;;;;;;19.65;47.34;99122.00;5071796;28;20072;-64
2023/07/11 08:13:12;;;;;;;2.20;1.20;;;;;;;19.84;46.86;99127.75;5071422;28;20513;-63
2023/07/11 08:15:38;;;;;;;2.50;1.17;;;;;;;19.85;46.66;99124.00;5071381;28;20108;-63
2023/07/11 08:18:03;;;;;;;3.08;1.00;;;;;;;19.87;46.56;99111.03;5072857;28;20360;-64
2023/07/11 08:20:29;;;;;;;1.50;0.80;;;;;;;20.26;45.72;99118.75;5070348;28;20025;-63
2023/07/11 08:22:54;;;;;;;4.43;0.93;;;;;;;20.56;45.12;99119.22;5071581;28;20043;-64
2023/07/11 08:25:20;;;;;;;5.97;1.17;;;;;;;20.71;44.60;99127.19;5071245;28;20525;-65
2023/07/11 08:27:46;;;;;;;5.20;1.20;;;;;;;20.66;43.90;99088.91;5071272;28;20024;-63
2023/07/11 08:30:11;;;;;;;4.72;0.90;;;;;;;20.94;43.76;99113.22;5071448;28;20471;-64
2023/07/11 08:32:38;;;;;;;4.15;1.10;;;;;;;21.05;44.13;99117.19;5071464;28;20033;-65
2023/07/11 08:35:06;;;;;;;3.78;1.00;;;;;;;21.14;44.19;99109.66;5071764;28;20028;-64
2023/07/11 08:37:31;;;;;;;3.20;1.15;;;;;;;20.74;44.50;99115.91;5073263;28;20111;-64
2023/07/11 08:39:57;;;;;;;2.15;1.02;;;;;;;20.46;44.32;99132.38;5073837;28;20036;-64
2023/07/11 08:42:40;;;;;;;3.22;0.70;;;;;;;20.27;45.04;99132.13;5085862;28;20032;-63
2023/07/11 08:45:21;;;;;;;5.68;0.90;;;;;;;19.92;45.60;99134.94;5070496;28;20029;-64
2023/07/11 08:48:16;;;;;;;6.40;0.70;;;;;;;19.99;45.78;99135.78;5062902;28;20086;-63
2023/07/11 08:51:13;;;;;;;2.53;0.70;;;;;;;19.92;46.21;99135.75;5067723;28;20482;-63
2023/07/11 08:53:45;;;;;;;;;;;;;;;20.33;45.31;99142.16;5056868;28;20036;-62
2023/07/11 08:56:29;;;;;;;4.35;0.90;;;;;;;19.93;45.92;99132.00;5073492;28;19919;-62
2023/07/11 08:59:00;;;;;;;7.00;0.85;;;;;;;19.74;46.47;99143.56;5075089;28;20040;-63
2023/07/11 09:01:45;;;;;;;4.47;0.88;;;;;;;19.74;46.63;99129.97;5074071;28;20036;-62
2023/07/11 09:04:16;;;;;;;3.35;1.10;;;;;;;20.14;45.88;99132.91;5074828;28;20033;-64
2023/07/11 09:06:50;;;;;;;5.97;1.00;;;;;;;20.77;44.33;99134.53;5075490;28;20095;-63
2023/07/11 09:09:16;;;;;;;5.95;1.10;;;;;;;21.34;43.29;99117.78;5054851;28;20464;-63
2023/07/11 09:12:05;;;;;;;5.57;1.00;;;;;;;21.82;42.18;99121.25;5055018;28;20037;-64
2023/07/11 09:14:52;;;;;;;1.88;1.27;;;;;;;21.74;42.71;99118.78;5054572;28;20025;-64
2023/07/11 09:17:41;;;;;;;3.97;1.40;;;;;;;21.30;43.51;99113.81;5070255;28;20341;-63
2023/07/11 09:20:20;;;;;;;4.60;1.50;;;;;;;20.90;44.34;99090.19;5074761;28;20352;-63
2023/07/11 09:23:18;;;;;;;3.88;1.58;;;;;;;20.91;44.89;99119.09;5074336;28;20127;-64
2023/07/11 09:25:45;;;;;;;5.18;1.33;;;;;;;20.61;45.47;99113.16;5060836;28;20427;-63
2023/07/11 09:28:23;;;;;;;4.25;1.20;;;;;;;20.55;45.66;99122.16;5079176;28;20117;-63
2023/07/11 09:31:00;;;;;;;6.90;1.35;;;;;;;20.26;45.95;99124.19;5092762;28;20093;-61
2023/07/11 09:33:37;;;;;;;5.88;1.25;;;;;;;20.01;46.64;99130.13;5089586;28;20118;-65
2023/07/11 09:36:14;;;;;;;1.95;1.20;;;;;;;19.91;46.92;99125.91;5094086;28;20035;-62
2023/07/11 09:39:04;;;;;;;1.70;1.08;;;;;;;20.13;46.41;99124.94;5092521;28;20115;-63
2023/07/11 09:41:54;;;;;;;2.25;1.20;;;;;;;20.48;46.03;99113.97;5094510;28;20047;-63
2023/07/11 09:44:19;;;;;;;5.20;1.27;;;;;;;20.53;45.22;99107.94;5093889;28;20028;-61
2023/07/11 09:46:45;;;;;;;4.00;1.30;;;;;;;20.58;45.35;99117.13;5082729;28;20375;-62
2023/07/11 09:49:18;;;;;;;6.13;1.30;;;;;;;20.49;45.30;99092.00;5094290;28;20101;-64
2023/07/11 09:51:54;;;;;;;6.20;1.33;;;;;;;20.67;45.71;99125.91;5093439;28;20093;-62
2023/07/11 09:54:23;;;;;;;4.78;1.30;;;;;;;20.64;46.01;99126.34;5093874;28;20501;-61
2023/07/11 09:56:50;;;;;;;2.65;1.17;;;;;;;20.69;45.74;99125.72;5092406;28;20024;-61
2023/07/11 09:59:17;;;;;;;1.70;1.15;;;;;;;20.87;45.38;99125.13;5076070;28;20097;-61
2023/07/11 10:01:43;;;;;;;3.45;1.40;;;;;;;21.06;45.02;99104.41;5082451;28;20488;-62
2023/07/11 10:04:15;;;;;;;4.55;1.15;;;;;;;21.17;44.43;99092.03;5073392;28;20033;-63
2023/07/11 10:06:51;;;;;;;2.17;1.15;;;;;;;21.30;44.52;99111.09;5073585;28;20106;-62
2023/07/11 10:09:21;;;;;;;;;;;;;;;21.76;43.26;99106.59;5084947;28;20043;-62
2023/07/11 10:12:20;;;;;;;3.60;1.30;;;;;;;21.42;43.87;99113.16;5093802;28;20702;-63
2023/07/11 10:14:52;;;;;;;3.10;1.10;;;;;;;21.44;43.90;99124.66;5088639;28;20121;-62
2023/07/11 10:17:19;;;;;;;2.45;1.10;;;;;;;21.70;43.50;99122.97;5084096;28;20111;-61
2023/07/11 10:19:49;;;;;;;3.13;0.95;;;;;;;21.90;42.75;99107.38;5085444;28;20097;-62
2023/07/11 10:22:21;;;;;;;4.45;1.30;;;;;;;22.31;42.60;99115.38;5093265;28;20032;-64
2023/07/11 10:24:48;;;;;;;1.55;0.98;;;;;;;22.70;41.51;99108.03;5092934;28;20032;-62
2023/07/11 10:27:17;;;;;;;4.07;0.93;;;;;;;23.23;40.72;99097.72;5093086;28;20035;-64
2023/07/11 10:29:50;;;;;;;3.15;0.98;;;;;;;23.32;39.76;99095.56;5091383;28;20024;-63
2023/07/11 10:32:28;;;;;;;2.25;0.90;;;;;;;23.37;39.80;99110.19;5077413;28;20037;-63
2023/07/11 10:34:57;;;;;;;1.42;1.00;;;;;;;23.19;39.42;99097.31;5073120;28;20400;-62
2023/07/11 10:37:43;;;;;;;1.92;0.90;;;;;;;23.18;39.29;99116.66;5072922;28;20052;-62
2023/07/11 10:40:28;;;;;;;2.00;0.80;;;;;;;23.44;39.00;99101.09;5090234;28;20048;-61
2023/07/11 10:43:04;;;;;;;2.83;0.90;;;;;;;23.71;38.35;99109.81;5092852;28;20081;-62
2023/07/11 10:45:39;;;;;;;4.00;1.10;;;;;;;24.07;37.88;99107.31;5093003;28;20036;-61
2023/07/11 10:48:23;;;;;;;1.10;1.00;;;;;;;24.07;36.96;99079.97;5077425;28;20036;-61
2023/07/11 10:50:51;;;;;;;6.93;1.00;;;;;;;24.14;37.45;99107.25;5052454;28;20063;-62
2023/07/11 10:53:34;;;;;;;4.80;0.93;;;;;;;23.90;37.29;99104.34;5064870;28;20032;-55
2023/07/11 10:56:13;;;;;;;5.50;0.80;;;;;;;23.54;38.16;99115.06;5072661;28;20029;-61
2023/07/11 10:58:39;;;;;;;3.53;0.85;;;;;;;23.07;39.98;99124.50;5074799;28;20093;-60
2023/07/11 11:01:30;;;;;;;4.50;0.90;;;;;;;22.91;40.57;99119.63;5076177;28;20041;-62
2023/07/11 11:04:33;;;;;;;2.80;1.90;;;;;;;22.48;40.83;99123.91;5052796;28;20120;-61
2023/07/11 11:07:02;;;;;;;2.65;1.67;;;;;;;21.97;41.71;99117.44;5052194;28;20541;-62
2023/07/11 11:09:43;;;;;;;3.83;2.95;;;;;;;21.91;41.77;99121.84;5062915;28;20511;-58
2023/07/11 11:12:36;;;;;;;4.90;3.75;;;;;;;22.21;41.29;99122.16;5068605;28;20043;-51
2023/07/11 11:15:31;;;;;;;1.65;1.30;;;;;;;22.54;40.20;99128.47;5063820;28;20036;-53
2023/07/11 11:18:19;;;;;;;1.00;0.90;;;;;;;22.69;39.32;99121.88;5071630;28;20078;-56
2023/07/11 11:21:05;;;;;;;2.58;1.25;;;;;;;22.89;38.53;99113.53;5074345;28;20292;-59
2023/07/11 11:23:38;;;;;;;3.45;0.82;;;;;;;23.00;38.34;99109.25;5072512;28;20035;-53
2023/07/11 11:26:19;;;;;;;2.78;1.00;;;;;;;23.34;38.15;99068.84;5072470;28;20056;-57
2023/07/11 11:29:02;;;;;;;3.80;1.73;;;;;;;23.93;37.01;99101.16;5073520;28;20089;-57
2023/07/11 11:31:30;;;;;;;8.68;4.13;;;;;;;23.83;36.50;99109.91;5075099;28;20052;-53
2023/07/11 11:34:08;;;;;;;4.00;1.35;;;;;;;23.45;37.41;99105.50;5071906;28;20059;-55
2023/07/11 11:36:58;;;;;;;3.55;1.33;;;;;;;22.87;38.37;99099.28;5072662;28;20033;-63
2023/07/11 11:39:41;;;;;;;7.20;1.60;;;;;;;22.29;39.60;99093.75;5075477;28;20028;-55
2023/07/11 11:42:20;;;;;;;2.33;1.77;;;;;;;22.12;39.89;99098.06;5088921;28;20036;-53
2023/07/11 11:44:58;;;;;;;5.28;2.20;;;;;;;21.91;40.54;99097.34;5090702;28;20093;-55